Hunters Hill, Australia
Current Conditions -  °F | °C
As of 4:00 PM on Sunday 26 Oct 2014 (Local Time) from YMAY Reporting Station
Clear Clear  
Wind Chill: 28°   Ceiling: Unl
Heat Index: 28°   Visibility: 6mi
Dew Point:   Wind: 17mph
Humidity: 23%   Direction: 270°W
Pressure: 29.83"   Gusts: NA
Location:  36.22°S, 147.53°E
Report Text: YMAY 260500Z AUTO 27015KT 9999 // NCD 28/05 Q1010
Loading
Personal Weather Stations






























Interactive Weather Map
Tropical Storm Tracking
New forecast layout! Learn more

10-Day Weather Forecast

Advertisements
Track Severe Weather on mobile